sensor_id;sensor_type;location;lat;lon;timestamp;temperature;humidity
51950;DHT22;37974;53.218;6.640;2023-12-20T00:00:14;5.30;99.90
51950;DHT22;37974;53.218;6.640;2023-12-20T00:02:40;5.30;99.90
51950;DHT22;37974;53.218;6.640;2023-12-20T00:05:06;5.30;99.90
51950;DHT22;37974;53.218;6.640;2023-12-20T00:07:31;5.20;99.90
51950;DHT22;37974;53.218;6.640;2023-12-20T00:09:57;5.10;99.90
51950;DHT22;37974;53.218;6.640;2023-12-20T00:12:23;5.30;99.90
51950;DHT22;37974;53.218;6.640;2023-12-20T00:14:48;5.10;99.90
51950;DHT22;37974;53.218;6.640;2023-12-20T00:17:14;5.00;99.90
51950;DHT22;37974;53.218;6.640;2023-12-20T00:19:40;5.00;99.90
51950;DHT22;37974;53.218;6.640;2023-12-20T00:22:06;5.00;99.90
51950;DHT22;37974;53.218;6.640;2023-12-20T00:24:31;4.90;99.90
51950;DHT22;37974;53.218;6.640;2023-12-20T00:26:57;5.00;99.90
51950;DHT22;37974;53.218;6.640;2023-12-20T00:29:23;5.00;99.90
51950;DHT22;37974;53.218;6.640;2023-12-20T00:31:48;4.90;99.90
51950;DHT22;37974;53.218;6.640;2023-12-20T00:34:14;4.90;99.90
51950;DHT22;37974;53.218;6.640;2023-12-20T00:36:40;4.90;99.90
51950;DHT22;37974;53.218;6.640;2023-12-20T00:39:05;4.90;99.90
51950;DHT22;37974;53.218;6.640;2023-12-20T00:41:32;4.90;99.90
51950;DHT22;37974;53.218;6.640;2023-12-20T00:43:58;4.90;99.90
51950;DHT22;37974;53.218;6.640;2023-12-20T00:46:23;4.90;99.90
51950;DHT22;37974;53.218;6.640;2023-12-20T00:48:49;5.00;99.90
51950;DHT22;37974;53.218;6.640;2023-12-20T00:51:15;5.00;99.90
51950;DHT22;37974;53.218;6.640;2023-12-20T00:53:40;5.10;99.90
51950;DHT22;37974;53.218;6.640;2023-12-20T00:56:06;5.10;99.90
51950;DHT22;37974;53.218;6.640;2023-12-20T00:58:32;5.30;99.90
51950;DHT22;37974;53.218;6.640;2023-12-20T01:00:58;5.30;99.90
51950;DHT22;37974;53.218;6.640;2023-12-20T01:03:23;5.30;99.90
51950;DHT22;37974;53.218;6.640;2023-12-20T01:05:49;5.30;99.90
51950;DHT22;37974;53.218;6.640;2023-12-20T01:08:15;5.30;99.90
51950;DHT22;37974;53.218;6.640;2023-12-20T01:10:40;5.30;99.90
51950;DHT22;37974;53.218;6.640;2023-12-20T01:13:06;5.30;99.90
51950;DHT22;37974;53.218;6.640;2023-12-20T01:15:32;5.30;99.90
51950;DHT22;37974;53.218;6.640;2023-12-20T01:17:58;5.30;99.90
51950;DHT22;37974;53.218;6.640;2023-12-20T01:20:25;5.40;99.90
51950;DHT22;37974;53.218;6.640;2023-12-20T01:22:51;5.50;99.90
51950;DHT22;37974;53.218;6.640;2023-12-20T01:25:16;5.40;99.90
51950;DHT22;37974;53.218;6.640;2023-12-20T01:27:42;5.30;99.90
51950;DHT22;37974;53.218;6.640;2023-12-20T01:30:08;5.30;99.90
51950;DHT22;37974;53.218;6.640;2023-12-20T01:32:34;5.30;99.90
51950;DHT22;37974;53.218;6.640;2023-12-20T01:35:00;5.30;99.90
51950;DHT22;37974;53.218;6.640;2023-12-20T01:37:25;5.30;99.90
51950;DHT22;37974;53.218;6.640;2023-12-20T01:39:52;5.40;99.90
51950;DHT22;37974;53.218;6.640;2023-12-20T01:42:18;5.50;99.90
51950;DHT22;37974;53.218;6.640;2023-12-20T01:44:44;5.60;99.90
51950;DHT22;37974;53.218;6.640;2023-12-20T01:47:09;5.70;99.90
51950;DHT22;37974;53.218;6.640;2023-12-20T01:49:35;5.70;99.90
51950;DHT22;37974;53.218;6.640;2023-12-20T01:52:01;5.80;99.90
51950;DHT22;37974;53.218;6.640;2023-12-20T01:54:27;5.80;99.90
51950;DHT22;37974;53.218;6.640;2023-12-20T01:56:53;5.80;99.90
51950;DHT22;37974;53.218;6.640;2023-12-20T01:59:20;5.80;99.90
51950;DHT22;37974;53.218;6.640;2023-12-20T02:01:47;6.00;99.90
51950;DHT22;37974;53.218;6.640;2023-12-20T02:04:13;5.70;99.90
51950;DHT22;37974;53.218;6.640;2023-12-20T02:06:40;5.70;99.90
51950;DHT22;37974;53.218;6.640;2023-12-20T02:09:07;5.70;99.90
51950;DHT22;37974;53.218;6.640;2023-12-20T02:11:33;5.70;99.90
51950;DHT22;37974;53.218;6.640;2023-12-20T02:14:01;5.70;99.90
51950;DHT22;37974;53.218;6.640;2023-12-20T02:16:27;5.80;99.90
51950;DHT22;37974;53.218;6.640;2023-12-20T02:18:53;5.80;99.90
51950;DHT22;37974;53.218;6.640;2023-12-20T02:21:31;5.80;99.90
51950;DHT22;37974;53.218;6.640;2023-12-20T02:23:57;5.80;99.90
51950;DHT22;37974;53.218;6.640;2023-12-20T02:26:22;5.70;99.90
51950;DHT22;37974;53.218;6.640;2023-12-20T02:28:48;5.70;99.90
51950;DHT22;37974;53.218;6.640;2023-12-20T02:31:14;5.70;99.90
51950;DHT22;37974;53.218;6.640;2023-12-20T02:33:40;5.70;99.90
51950;DHT22;37974;53.218;6.640;2023-12-20T02:36:07;5.60;99.90
51950;DHT22;37974;53.218;6.640;2023-12-20T02:38:33;5.60;99.90
51950;DHT22;37974;53.218;6.640;2023-12-20T02:40:59;5.60;99.90
51950;DHT22;37974;53.218;6.640;2023-12-20T02:43:25;5.50;99.90
51950;DHT22;37974;53.218;6.640;2023-12-20T02:45:51;5.60;99.90
51950;DHT22;37974;53.218;6.640;2023-12-20T02:48:17;5.60;99.90
51950;DHT22;37974;53.218;6.640;2023-12-20T02:50:43;5.70;99.90
51950;DHT22;37974;53.218;6.640;2023-12-20T02:53:09;5.70;99.90
51950;DHT22;37974;53.218;6.640;2023-12-20T02:55:34;5.80;99.90
51950;DHT22;37974;53.218;6.640;2023-12-20T02:58:00;5.80;99.90
51950;DHT22;37974;53.218;6.640;2023-12-20T03:00:26;5.80;99.90
51950;DHT22;37974;53.218;6.640;2023-12-20T03:02:51;5.80;99.90
51950;DHT22;37974;53.218;6.640;2023-12-20T03:05:17;5.80;99.90
51950;DHT22;37974;53.218;6.640;2023-12-20T03:07:43;6.00;99.90
51950;DHT22;37974;53.218;6.640;2023-12-20T03:10:08;5.80;99.90
51950;DHT22;37974;53.218;6.640;2023-12-20T03:12:35;5.70;99.90
51950;DHT22;37974;53.218;6.640;2023-12-20T03:15:00;5.70;99.90
51950;DHT22;37974;53.218;6.640;2023-12-20T03:17:26;5.60;99.90
51950;DHT22;37974;53.218;6.640;2023-12-20T03:19:52;6.00;99.90
51950;DHT22;37974;53.218;6.640;2023-12-20T03:22:17;5.60;99.90
51950;DHT22;37974;53.218;6.640;2023-12-20T03:24:43;5.60;99.90
51950;DHT22;37974;53.218;6.640;2023-12-20T03:27:08;5.60;99.90
51950;DHT22;37974;53.218;6.640;2023-12-20T03:29:34;5.80;99.90
51950;DHT22;37974;53.218;6.640;2023-12-20T03:32:00;5.90;99.90
51950;DHT22;37974;53.218;6.640;2023-12-20T03:34:26;5.90;99.90
51950;DHT22;37974;53.218;6.640;2023-12-20T03:36:52;6.00;99.90
51950;DHT22;37974;53.218;6.640;2023-12-20T03:39:18;6.10;99.90
51950;DHT22;37974;53.218;6.640;2023-12-20T03:41:43;6.10;99.90
51950;DHT22;37974;53.218;6.640;2023-12-20T03:44:09;6.10;99.90
51950;DHT22;37974;53.218;6.640;2023-12-20T03:46:35;6.00;99.90
51950;DHT22;37974;53.218;6.640;2023-12-20T03:49:00;6.00;99.90
51950;DHT22;37974;53.218;6.640;2023-12-20T03:51:26;6.00;99.90
51950;DHT22;37974;53.218;6.640;2023-12-20T03:53:52;6.00;99.90
51950;DHT22;37974;53.218;6.640;2023-12-20T03:56:17;6.00;99.90
51950;DHT22;37974;53.218;6.640;2023-12-20T03:58:43;5.90;99.90
51950;DHT22;37974;53.218;6.640;2023-12-20T04:01:10;5.90;99.90
51950;DHT22;37974;53.218;6.640;2023-12-20T04:03:38;5.90;99.90
51950;DHT22;37974;53.218;6.640;2023-12-20T04:06:04;6.00;99.90
51950;DHT22;37974;53.218;6.640;2023-12-20T04:08:30;6.00;99.90
51950;DHT22;37974;53.218;6.640;2023-12-20T04:10:55;6.00;99.90
51950;DHT22;37974;53.218;6.640;2023-12-20T04:13:21;6.00;99.90
51950;DHT22;37974;53.218;6.640;2023-12-20T04:15:47;6.00;99.90
51950;DHT22;37974;53.218;6.640;2023-12-20T04:18:13;6.00;99.90
51950;DHT22;37974;53.218;6.640;2023-12-20T04:20:39;5.90;99.90
51950;DHT22;37974;53.218;6.640;2023-12-20T04:23:04;5.80;99.90
51950;DHT22;37974;53.218;6.640;2023-12-20T04:25:30;5.80;99.90
51950;DHT22;37974;53.218;6.640;2023-12-20T04:27:56;5.90;99.90
51950;DHT22;37974;53.218;6.640;2023-12-20T04:30:22;5.90;99.90
51950;DHT22;37974;53.218;6.640;2023-12-20T04:32:47;6.00;99.90
51950;DHT22;37974;53.218;6.640;2023-12-20T04:35:13;6.00;99.90
51950;DHT22;37974;53.218;6.640;2023-12-20T04:37:39;6.00;99.90
51950;DHT22;37974;53.218;6.640;2023-12-20T04:40:05;6.10;99.90
51950;DHT22;37974;53.218;6.640;2023-12-20T04:42:31;6.10;99.90
51950;DHT22;37974;53.218;6.640;2023-12-20T04:44:56;6.20;99.90
51950;DHT22;37974;53.218;6.640;2023-12-20T04:47:22;6.20;99.90
51950;DHT22;37974;53.218;6.640;2023-12-20T04:49:48;6.40;99.90
51950;DHT22;37974;53.218;6.640;2023-12-20T04:52:14;6.30;99.90
51950;DHT22;37974;53.218;6.640;2023-12-20T04:54:40;6.30;99.90
51950;DHT22;37974;53.218;6.640;2023-12-20T04:57:05;6.30;99.90
51950;DHT22;37974;53.218;6.640;2023-12-20T04:59:31;6.40;99.90
51950;DHT22;37974;53.218;6.640;2023-12-20T05:01:57;6.40;99.90
51950;DHT22;37974;53.218;6.640;2023-12-20T05:04:23;6.40;99.90
51950;DHT22;37974;53.218;6.640;2023-12-20T05:06:48;6.50;99.90
51950;DHT22;37974;53.218;6.640;2023-12-20T05:09:15;6.50;99.90
51950;DHT22;37974;53.218;6.640;2023-12-20T05:11:41;6.50;99.90
51950;DHT22;37974;53.218;6.640;2023-12-20T05:14:07;6.60;99.90
51950;DHT22;37974;53.218;6.640;2023-12-20T05:16:33;6.70;99.90
51950;DHT22;37974;53.218;6.640;2023-12-20T05:18:58;6.60;99.90
51950;DHT22;37974;53.218;6.640;2023-12-20T05:21:26;6.60;99.90
51950;DHT22;37974;53.218;6.640;2023-12-20T05:23:52;6.70;99.90
51950;DHT22;37974;53.218;6.640;2023-12-20T05:26:17;6.70;99.90
51950;DHT22;37974;53.218;6.640;2023-12-20T05:28:43;6.70;99.90
51950;DHT22;37974;53.218;6.640;2023-12-20T05:31:09;6.70;99.90
51950;DHT22;37974;53.218;6.640;2023-12-20T05:33:35;6.70;99.90
51950;DHT22;37974;53.218;6.640;2023-12-20T05:36:00;6.70;99.90
51950;DHT22;37974;53.218;6.640;2023-12-20T05:38:26;6.70;99.90
51950;DHT22;37974;53.218;6.640;2023-12-20T05:40:52;6.70;99.90
51950;DHT22;37974;53.218;6.640;2023-12-20T05:43:18;6.70;99.90
51950;DHT22;37974;53.218;6.640;2023-12-20T05:45:43;6.70;99.90
51950;DHT22;37974;53.218;6.640;2023-12-20T05:48:09;6.80;99.90
51950;DHT22;37974;53.218;6.640;2023-12-20T05:50:35;6.80;99.90
51950;DHT22;37974;53.218;6.640;2023-12-20T05:53:00;6.80;99.90
51950;DHT22;37974;53.218;6.640;2023-12-20T05:55:26;6.80;99.90
51950;DHT22;37974;53.218;6.640;2023-12-20T05:57:52;6.80;99.90
51950;DHT22;37974;53.218;6.640;2023-12-20T06:00:18;6.80;99.90
51950;DHT22;37974;53.218;6.640;2023-12-20T06:02:44;6.80;99.90
51950;DHT22;37974;53.218;6.640;2023-12-20T06:05:09;6.80;99.90
51950;DHT22;37974;53.218;6.640;2023-12-20T06:07:35;6.80;99.90
51950;DHT22;37974;53.218;6.640;2023-12-20T06:10:01;6.80;99.90
51950;DHT22;37974;53.218;6.640;2023-12-20T06:12:26;6.80;99.90
51950;DHT22;37974;53.218;6.640;2023-12-20T06:14:54;6.80;99.90
51950;DHT22;37974;53.218;6.640;2023-12-20T06:17:20;6.90;99.90
51950;DHT22;37974;53.218;6.640;2023-12-20T06:19:45;6.90;99.90
51950;DHT22;37974;53.218;6.640;2023-12-20T06:22:14;6.90;99.90
51950;DHT22;37974;53.218;6.640;2023-12-20T06:24:40;6.90;99.90
51950;DHT22;37974;53.218;6.640;2023-12-20T06:27:05;7.00;99.90
51950;DHT22;37974;53.218;6.640;2023-12-20T06:29:31;7.00;99.90
51950;DHT22;37974;53.218;6.640;2023-12-20T06:31:57;7.00;99.90
51950;DHT22;37974;53.218;6.640;2023-12-20T06:34:23;7.00;99.90
51950;DHT22;37974;53.218;6.640;2023-12-20T06:36:48;7.00;99.90
51950;DHT22;37974;53.218;6.640;2023-12-20T06:39:14;7.00;99.90
51950;DHT22;37974;53.218;6.640;2023-12-20T06:41:40;7.00;99.90
51950;DHT22;37974;53.218;6.640;2023-12-20T06:44:06;7.00;99.90
51950;DHT22;37974;53.218;6.640;2023-12-20T06:46:31;7.00;99.90
51950;DHT22;37974;53.218;6.640;2023-12-20T06:48:57;7.00;99.90
51950;DHT22;37974;53.218;6.640;2023-12-20T06:51:23;7.10;99.90
51950;DHT22;37974;53.218;6.640;2023-12-20T06:53:51;7.10;99.90
51950;DHT22;37974;53.218;6.640;2023-12-20T06:56:17;7.10;99.90
51950;DHT22;37974;53.218;6.640;2023-12-20T06:58:43;7.10;99.90
51950;DHT22;37974;53.218;6.640;2023-12-20T07:01:14;7.10;99.90
51950;DHT22;37974;53.218;6.640;2023-12-20T07:03:40;7.20;99.90
51950;DHT22;37974;53.218;6.640;2023-12-20T07:06:06;7.20;99.90
51950;DHT22;37974;53.218;6.640;2023-12-20T07:08:32;7.20;99.90
51950;DHT22;37974;53.218;6.640;2023-12-20T07:10:57;7.30;99.90
51950;DHT22;37974;53.218;6.640;2023-12-20T07:13:23;7.30;99.90
51950;DHT22;37974;53.218;6.640;2023-12-20T07:15:49;7.30;99.90
51950;DHT22;37974;53.218;6.640;2023-12-20T07:18:15;7.30;99.90
51950;DHT22;37974;53.218;6.640;2023-12-20T07:20:40;7.30;99.90
51950;DHT22;37974;53.218;6.640;2023-12-20T07:23:06;7.40;99.90
51950;DHT22;37974;53.218;6.640;2023-12-20T07:25:32;7.40;99.90
51950;DHT22;37974;53.218;6.640;2023-12-20T07:27:58;7.40;99.90
51950;DHT22;37974;53.218;6.640;2023-12-20T07:30:24;7.40;99.90
51950;DHT22;37974;53.218;6.640;2023-12-20T07:32:49;7.40;99.90
51950;DHT22;37974;53.218;6.640;2023-12-20T07:35:16;7.40;99.90
51950;DHT22;37974;53.218;6.640;2023-12-20T07:37:42;7.40;99.90
51950;DHT22;37974;53.218;6.640;2023-12-20T07:40:08;7.50;99.90
51950;DHT22;37974;53.218;6.640;2023-12-20T07:42:33;7.50;99.90
51950;DHT22;37974;53.218;6.640;2023-12-20T07:44:59;7.40;99.90
51950;DHT22;37974;53.218;6.640;2023-12-20T07:47:25;7.50;99.90
51950;DHT22;37974;53.218;6.640;2023-12-20T07:49:51;7.60;99.90
51950;DHT22;37974;53.218;6.640;2023-12-20T07:52:18;7.60;99.90
51950;DHT22;37974;53.218;6.640;2023-12-20T07:54:44;7.60;99.90
51950;DHT22;37974;53.218;6.640;2023-12-20T07:57:11;7.60;99.90
51950;DHT22;37974;53.218;6.640;2023-12-20T07:59:36;7.60;99.90
51950;DHT22;37974;53.218;6.640;2023-12-20T08:02:02;7.60;99.90
51950;DHT22;37974;53.218;6.640;2023-12-20T08:04:28;7.60;99.90
51950;DHT22;37974;53.218;6.640;2023-12-20T08:06:54;7.60;99.90
51950;DHT22;37974;53.218;6.640;2023-12-20T08:09:19;7.60;99.90
51950;DHT22;37974;53.218;6.640;2023-12-20T08:11:47;7.60;99.90
51950;DHT22;37974;53.218;6.640;2023-12-20T08:14:13;7.80;99.90
51950;DHT22;37974;53.218;6.640;2023-12-20T08:16:39;7.60;99.90
51950;DHT22;37974;53.218;6.640;2023-12-20T08:19:05;7.60;99.90
51950;DHT22;37974;53.218;6.640;2023-12-20T08:21:30;7.70;99.90
51950;DHT22;37974;53.218;6.640;2023-12-20T08:23:56;7.70;99.90
51950;DHT22;37974;53.218;6.640;2023-12-20T08:26:22;7.70;99.90
51950;DHT22;37974;53.218;6.640;2023-12-20T08:28:48;7.70;99.90
51950;DHT22;37974;53.218;6.640;2023-12-20T08:31:15;7.80;99.90
51950;DHT22;37974;53.218;6.640;2023-12-20T08:33:44;7.80;99.90
51950;DHT22;37974;53.218;6.640;2023-12-20T08:36:11;7.80;99.90
51950;DHT22;37974;53.218;6.640;2023-12-20T08:38:37;7.90;99.90
51950;DHT22;37974;53.218;6.640;2023-12-20T08:41:03;7.90;99.90
51950;DHT22;37974;53.218;6.640;2023-12-20T08:43:31;7.40;99.90
51950;DHT22;37974;53.218;6.640;2023-12-20T08:45:57;7.10;99.90
51950;DHT22;37974;53.218;6.640;2023-12-20T08:48:23;6.70;99.90
51950;DHT22;37974;53.218;6.640;2023-12-20T08:50:48;6.50;99.90
51950;DHT22;37974;53.218;6.640;2023-12-20T08:53:16;6.20;99.90
51950;DHT22;37974;53.218;6.640;2023-12-20T08:55:42;6.10;99.90
51950;DHT22;37974;53.218;6.640;2023-12-20T08:58:08;5.90;99.90
51950;DHT22;37974;53.218;6.640;2023-12-20T09:00:34;5.80;99.90
51950;DHT22;37974;53.218;6.640;2023-12-20T09:03:01;6.20;99.90
51950;DHT22;37974;53.218;6.640;2023-12-20T09:05:27;5.70;99.90
51950;DHT22;37974;53.218;6.640;2023-12-20T09:07:53;5.70;99.90
51950;DHT22;37974;53.218;6.640;2023-12-20T09:10:19;5.60;99.90
51950;DHT22;37974;53.218;6.640;2023-12-20T09:12:50;5.70;99.90
51950;DHT22;37974;53.218;6.640;2023-12-20T09:15:16;5.60;99.90
51950;DHT22;37974;53.218;6.640;2023-12-20T09:17:42;5.60;99.90
51950;DHT22;37974;53.218;6.640;2023-12-20T09:20:09;5.60;99.90
51950;DHT22;37974;53.218;6.640;2023-12-20T09:22:35;5.60;99.90
51950;DHT22;37974;53.218;6.640;2023-12-20T09:25:01;5.70;99.90
51950;DHT22;37974;53.218;6.640;2023-12-20T09:27:27;5.70;99.90
51950;DHT22;37974;53.218;6.640;2023-12-20T09:29:53;5.70;99.90
51950;DHT22;37974;53.218;6.640;2023-12-20T09:32:19;5.80;99.90
51950;DHT22;37974;53.218;6.640;2023-12-20T09:34:47;5.80;99.90
51950;DHT22;37974;53.218;6.640;2023-12-20T09:37:13;5.80;99.90
51950;DHT22;37974;53.218;6.640;2023-12-20T09:39:39;5.80;99.90
51950;DHT22;37974;53.218;6.640;2023-12-20T09:42:06;5.80;99.90
51950;DHT22;37974;53.218;6.640;2023-12-20T09:44:32;5.80;99.90
51950;DHT22;37974;53.218;6.640;2023-12-20T09:47:08;5.80;99.90
51950;DHT22;37974;53.218;6.640;2023-12-20T09:49:34;5.90;99.90
51950;DHT22;37974;53.218;6.640;2023-12-20T09:52:00;5.90;99.90
51950;DHT22;37974;53.218;6.640;2023-12-20T09:54:28;5.90;99.90
51950;DHT22;37974;53.218;6.640;2023-12-20T09:56:54;6.00;99.90
51950;DHT22;37974;53.218;6.640;2023-12-20T09:59:20;6.00;99.90
51950;DHT22;37974;53.218;6.640;2023-12-20T10:01:46;6.00;99.90
51950;DHT22;37974;53.218;6.640;2023-12-20T10:04:12;6.10;99.90
51950;DHT22;37974;53.218;6.640;2023-12-20T10:06:40;6.10;99.90
51950;DHT22;37974;53.218;6.640;2023-12-20T10:09:07;6.10;99.90
51950;DHT22;37974;53.218;6.640;2023-12-20T10:11:35;6.10;99.90
51950;DHT22;37974;53.218;6.640;2023-12-20T10:14:03;6.20;99.90
51950;DHT22;37974;53.218;6.640;2023-12-20T10:16:30;6.20;99.90
51950;DHT22;37974;53.218;6.640;2023-12-20T10:18:56;6.40;99.90
51950;DHT22;37974;53.218;6.640;2023-12-20T10:21:22;6.40;99.90
51950;DHT22;37974;53.218;6.640;2023-12-20T10:23:50;6.50;99.90
51950;DHT22;37974;53.218;6.640;2023-12-20T10:26:20;6.60;99.90
51950;DHT22;37974;53.218;6.640;2023-12-20T10:28:49;6.60;99.90
51950;DHT22;37974;53.218;6.640;2023-12-20T10:31:33;6.60;99.90
51950;DHT22;37974;53.218;6.640;2023-12-20T10:34:00;6.70;99.90
51950;DHT22;37974;53.218;6.640;2023-12-20T10:36:27;6.80;99.90
51950;DHT22;37974;53.218;6.640;2023-12-20T10:38:54;6.80;99.90
51950;DHT22;37974;53.218;6.640;2023-12-20T10:41:26;6.90;99.90
51950;DHT22;37974;53.218;6.640;2023-12-20T10:44:01;6.90;99.90
51950;DHT22;37974;53.218;6.640;2023-12-20T10:46:28;6.90;99.90
51950;DHT22;37974;53.218;6.640;2023-12-20T10:48:56;6.80;99.90
51950;DHT22;37974;53.218;6.640;2023-12-20T10:51:23;6.80;99.90
51950;DHT22;37974;53.218;6.640;2023-12-20T10:53:52;6.80;99.90
51950;DHT22;37974;53.218;6.640;2023-12-20T10:56:19;6.70;99.90
51950;DHT22;37974;53.218;6.640;2023-12-20T10:58:47;6.70;99.90
51950;DHT22;37974;53.218;6.640;2023-12-20T11:01:14;6.70;99.90
51950;DHT22;37974;53.218;6.640;2023-12-20T11:03:47;6.70;99.90
51950;DHT22;37974;53.218;6.640;2023-12-20T11:06:18;6.70;99.90
51950;DHT22;37974;53.218;6.640;2023-12-20T11:08:52;6.80;99.90
51950;DHT22;37974;53.218;6.640;2023-12-20T11:11:31;6.80;99.90
51950;DHT22;37974;53.218;6.640;2023-12-20T11:16:24;6.80;99.90
51950;DHT22;37974;53.218;6.640;2023-12-20T11:18:51;6.90;99.90
51950;DHT22;37974;53.218;6.640;2023-12-20T11:21:17;6.90;99.90
51950;DHT22;37974;53.218;6.640;2023-12-20T11:23:42;6.90;99.90
51950;DHT22;37974;53.218;6.640;2023-12-20T11:26:09;6.90;99.90
51950;DHT22;37974;53.218;6.640;2023-12-20T11:28:35;6.90;99.90
51950;DHT22;37974;53.218;6.640;2023-12-20T11:31:01;6.90;99.90
51950;DHT22;37974;53.218;6.640;2023-12-20T11:33:37;6.90;99.90
51950;DHT22;37974;53.218;6.640;2023-12-20T11:36:13;6.90;99.90
51950;DHT22;37974;53.218;6.640;2023-12-20T11:38:40;6.90;99.90
51950;DHT22;37974;53.218;6.640;2023-12-20T11:41:15;6.90;99.90
51950;DHT22;37974;53.218;6.640;2023-12-20T11:43:41;7.00;99.90
51950;DHT22;37974;53.218;6.640;2023-12-20T11:46:08;7.10;99.90
51950;DHT22;37974;53.218;6.640;2023-12-20T11:48:37;7.10;99.90
51950;DHT22;37974;53.218;6.640;2023-12-20T11:51:09;7.20;99.90
51950;DHT22;37974;53.218;6.640;2023-12-20T11:53:35;7.20;99.90
51950;DHT22;37974;53.218;6.640;2023-12-20T11:56:03;7.20;99.90
51950;DHT22;37974;53.218;6.640;2023-12-20T11:58:29;7.20;99.90
51950;DHT22;37974;53.218;6.640;2023-12-20T12:00:56;7.20;99.90
51950;DHT22;37974;53.218;6.640;2023-12-20T12:03:22;7.20;99.90
51950;DHT22;37974;53.218;6.640;2023-12-20T12:05:49;7.20;99.90
51950;DHT22;37974;53.218;6.640;2023-12-20T12:08:16;7.20;99.90
51950;DHT22;37974;53.218;6.640;2023-12-20T12:10:43;7.20;99.90
51950;DHT22;37974;53.218;6.640;2023-12-20T12:13:09;7.10;99.90
51950;DHT22;37974;53.218;6.640;2023-12-20T12:15:36;7.10;99.90
51950;DHT22;37974;53.218;6.640;2023-12-20T12:18:02;7.10;99.90
51950;DHT22;37974;53.218;6.640;2023-12-20T12:20:28;7.10;99.90
51950;DHT22;37974;53.218;6.640;2023-12-20T12:22:59;7.10;99.90
51950;DHT22;37974;53.218;6.640;2023-12-20T12:25:25;7.10;99.90
51950;DHT22;37974;53.218;6.640;2023-12-20T12:27:51;7.10;99.90
51950;DHT22;37974;53.218;6.640;2023-12-20T12:30:18;7.10;99.90
51950;DHT22;37974;53.218;6.640;2023-12-20T12:32:45;7.10;99.90
51950;DHT22;37974;53.218;6.640;2023-12-20T12:35:10;7.10;99.90
51950;DHT22;37974;53.218;6.640;2023-12-20T12:37:38;7.10;99.90
51950;DHT22;37974;53.218;6.640;2023-12-20T12:40:11;7.10;99.90
51950;DHT22;37974;53.218;6.640;2023-12-20T12:42:38;7.10;99.90
51950;DHT22;37974;53.218;6.640;2023-12-20T12:45:06;7.10;99.90
51950;DHT22;37974;53.218;6.640;2023-12-20T12:47:33;7.10;99.90
51950;DHT22;37974;53.218;6.640;2023-12-20T12:49:59;7.10;99.90
51950;DHT22;37974;53.218;6.640;2023-12-20T12:52:25;7.20;99.90
51950;DHT22;37974;53.218;6.640;2023-12-20T12:54:52;7.20;99.90
51950;DHT22;37974;53.218;6.640;2023-12-20T12:57:18;7.30;99.90
51950;DHT22;37974;53.218;6.640;2023-12-20T12:59:45;7.30;99.90
51950;DHT22;37974;53.218;6.640;2023-12-20T13:02:13;7.40;99.90
51950;DHT22;37974;53.218;6.640;2023-12-20T13:04:40;7.40;99.90
51950;DHT22;37974;53.218;6.640;2023-12-20T13:07:07;7.40;99.90
51950;DHT22;37974;53.218;6.640;2023-12-20T13:09:33;7.30;99.90
51950;DHT22;37974;53.218;6.640;2023-12-20T13:11:59;7.30;99.90
51950;DHT22;37974;53.218;6.640;2023-12-20T13:14:25;7.30;99.90
51950;DHT22;37974;53.218;6.640;2023-12-20T13:16:51;7.30;99.90
51950;DHT22;37974;53.218;6.640;2023-12-20T13:19:16;7.30;99.90
51950;DHT22;37974;53.218;6.640;2023-12-20T13:21:42;7.30;99.90
51950;DHT22;37974;53.218;6.640;2023-12-20T13:24:08;7.20;99.90
51950;DHT22;37974;53.218;6.640;2023-12-20T13:26:33;7.20;99.90
51950;DHT22;37974;53.218;6.640;2023-12-20T13:28:59;7.20;99.90
51950;DHT22;37974;53.218;6.640;2023-12-20T13:31:25;7.20;99.90
51950;DHT22;37974;53.218;6.640;2023-12-20T13:33:50;7.20;99.90
51950;DHT22;37974;53.218;6.640;2023-12-20T13:36:18;7.20;99.90
51950;DHT22;37974;53.218;6.640;2023-12-20T13:38:44;7.10;99.90
51950;DHT22;37974;53.218;6.640;2023-12-20T13:41:09;7.10;99.90
51950;DHT22;37974;53.218;6.640;2023-12-20T13:43:35;7.10;99.90
51950;DHT22;37974;53.218;6.640;2023-12-20T13:46:01;7.10;99.90
51950;DHT22;37974;53.218;6.640;2023-12-20T13:48:27;7.10;99.90
51950;DHT22;37974;53.218;6.640;2023-12-20T13:50:52;7.00;99.90
51950;DHT22;37974;53.218;6.640;2023-12-20T13:53:18;7.00;99.90
51950;DHT22;37974;53.218;6.640;2023-12-20T13:55:44;6.90;99.90
51950;DHT22;37974;53.218;6.640;2023-12-20T13:58:10;6.90;99.90
51950;DHT22;37974;53.218;6.640;2023-12-20T14:00:36;6.90;99.90
51950;DHT22;37974;53.218;6.640;2023-12-20T14:03:04;6.80;99.90
51950;DHT22;37974;53.218;6.640;2023-12-20T14:05:30;6.80;99.90
51950;DHT22;37974;53.218;6.640;2023-12-20T14:07:56;6.80;99.90
51950;DHT22;37974;53.218;6.640;2023-12-20T14:10:23;6.80;99.90
51950;DHT22;37974;53.218;6.640;2023-12-20T14:12:49;6.80;99.90
51950;DHT22;37974;53.218;6.640;2023-12-20T14:15:15;6.70;99.90
51950;DHT22;37974;53.218;6.640;2023-12-20T14:17:41;6.70;99.90
51950;DHT22;37974;53.218;6.640;2023-12-20T14:20:08;6.70;99.90
51950;DHT22;37974;53.218;6.640;2023-12-20T14:22:35;6.60;99.90
51950;DHT22;37974;53.218;6.640;2023-12-20T14:25:01;6.60;99.90
51950;DHT22;37974;53.218;6.640;2023-12-20T14:27:27;6.50;99.90
51950;DHT22;37974;53.218;6.640;2023-12-20T14:29:54;6.50;99.90
51950;DHT22;37974;53.218;6.640;2023-12-20T14:32:20;6.50;99.90
51950;DHT22;37974;53.218;6.640;2023-12-20T14:34:46;6.50;99.90
51950;DHT22;37974;53.218;6.640;2023-12-20T14:37:12;6.50;99.90
51950;DHT22;37974;53.218;6.640;2023-12-20T14:39:38;6.50;99.90
51950;DHT22;37974;53.218;6.640;2023-12-20T14:42:07;6.50;99.90
51950;DHT22;37974;53.218;6.640;2023-12-20T14:44:37;6.50;99.90
51950;DHT22;37974;53.218;6.640;2023-12-20T14:47:04;6.50;99.90
51950;DHT22;37974;53.218;6.640;2023-12-20T14:49:30;6.50;99.90
51950;DHT22;37974;53.218;6.640;2023-12-20T14:51:56;6.40;99.90
51950;DHT22;37974;53.218;6.640;2023-12-20T14:54:21;6.40;99.90
51950;DHT22;37974;53.218;6.640;2023-12-20T14:56:47;6.40;99.90
51950;DHT22;37974;53.218;6.640;2023-12-20T14:59:13;6.40;99.90
51950;DHT22;37974;53.218;6.640;2023-12-20T15:01:39;6.40;99.90
51950;DHT22;37974;53.218;6.640;2023-12-20T15:04:06;6.30;99.90
51950;DHT22;37974;53.218;6.640;2023-12-20T15:06:33;6.30;99.90
51950;DHT22;37974;53.218;6.640;2023-12-20T15:08:59;6.30;99.90
51950;DHT22;37974;53.218;6.640;2023-12-20T15:11:26;6.30;99.90
51950;DHT22;37974;53.218;6.640;2023-12-20T15:13:52;6.30;99.90
51950;DHT22;37974;53.218;6.640;2023-12-20T15:16:21;6.30;99.90
51950;DHT22;37974;53.218;6.640;2023-12-20T15:18:47;6.20;99.90
51950;DHT22;37974;53.218;6.640;2023-12-20T15:21:14;6.20;99.90
51950;DHT22;37974;53.218;6.640;2023-12-20T15:23:40;6.20;99.90
51950;DHT22;37974;53.218;6.640;2023-12-20T15:26:16;6.20;99.90
51950;DHT22;37974;53.218;6.640;2023-12-20T15:28:42;6.20;99.90
51950;DHT22;37974;53.218;6.640;2023-12-20T15:31:09;6.10;99.90
51950;DHT22;37974;53.218;6.640;2023-12-20T15:33:34;6.10;99.90
51950;DHT22;37974;53.218;6.640;2023-12-20T15:36:00;6.10;99.90
51950;DHT22;37974;53.218;6.640;2023-12-20T15:38:26;6.10;99.90
51950;DHT22;37974;53.218;6.640;2023-12-20T15:40:51;6.00;99.90